createdAt,value
2023-05-16T00:00:24.662Z,0.50
2023-05-16T00:01:24.533Z,0.50
2023-05-16T00:02:24.595Z,0.50
2023-05-16T00:03:24.593Z,0.42
2023-05-16T00:04:24.641Z,0.39
2023-05-16T00:05:24.652Z,0.39
2023-05-16T00:06:24.753Z,0.40
2023-05-16T00:07:24.761Z,0.42
2023-05-16T00:08:24.822Z,0.46
2023-05-16T00:09:24.869Z,0.50
2023-05-16T00:10:25.217Z,0.50
2023-05-16T00:11:24.986Z,0.50
2023-05-16T00:12:25.035Z,0.50
2023-05-16T00:13:25.147Z,0.50
2023-05-16T00:14:25.141Z,0.50
2023-05-16T00:15:25.231Z,0.50
2023-05-16T00:16:25.276Z,0.51
2023-05-16T00:17:25.344Z,0.51
2023-05-16T00:18:25.366Z,0.50
2023-05-16T00:19:25.432Z,0.51
2023-05-16T00:20:25.748Z,0.51
2023-05-16T00:21:25.540Z,0.50
2023-05-16T00:22:25.599Z,0.51
2023-05-16T00:23:25.663Z,0.50
2023-05-16T00:24:26.091Z,0.51
2023-05-16T00:25:26.111Z,0.51
2023-05-16T00:26:26.101Z,0.50
2023-05-16T00:27:26.099Z,0.50
2023-05-16T00:28:26.081Z,0.51
2023-05-16T00:29:26.109Z,0.51
2023-05-16T00:30:26.356Z,0.50
2023-05-16T00:31:26.194Z,0.50
2023-05-16T00:32:26.185Z,0.51
2023-05-16T00:33:26.221Z,0.51
2023-05-16T00:34:26.344Z,0.51
2023-05-16T00:35:26.349Z,0.50
2023-05-16T00:36:26.407Z,0.50
2023-05-16T00:37:26.453Z,0.50
2023-05-16T00:38:26.516Z,0.50
2023-05-16T00:39:26.568Z,0.51
2023-05-16T00:40:27.276Z,0.51
2023-05-16T00:41:27.016Z,0.50
2023-05-16T00:42:26.975Z,0.50
2023-05-16T00:43:26.971Z,0.51
2023-05-16T00:44:26.961Z,0.51
2023-05-16T00:45:26.989Z,0.50
2023-05-16T00:46:27.028Z,0.51
2023-05-16T00:47:27.104Z,0.51
2023-05-16T00:48:27.084Z,0.51
2023-05-16T00:49:27.215Z,0.51
2023-05-16T00:50:27.545Z,0.50
2023-05-16T00:51:27.265Z,0.51
2023-05-16T00:52:27.320Z,0.52
2023-05-16T00:53:27.378Z,0.51
2023-05-16T00:54:27.437Z,0.50
2023-05-16T00:55:27.504Z,0.50
2023-05-16T00:56:27.553Z,0.51
2023-05-16T00:57:27.624Z,0.51
2023-05-16T00:58:27.666Z,0.50
2023-05-16T00:59:27.734Z,0.50
2023-05-16T01:00:28.074Z,0.50
2023-05-16T01:01:27.934Z,0.50
2023-05-16T01:02:28.022Z,0.51
2023-05-16T01:03:28.120Z,0.51
2023-05-16T01:04:28.035Z,0.51
2023-05-16T01:05:28.429Z,0.50
2023-05-16T01:06:28.149Z,0.51
2023-05-16T01:07:28.208Z,0.51
2023-05-16T01:08:28.273Z,0.51
2023-05-16T01:09:28.333Z,0.51
2023-05-16T01:10:28.391Z,0.51
2023-05-16T01:11:28.462Z,0.51
2023-05-16T01:12:28.504Z,0.51
2023-05-16T01:13:28.988Z,0.51
2023-05-16T01:14:28.637Z,0.50
2023-05-16T01:15:29.112Z,0.50
2023-05-16T01:16:28.827Z,0.50
2023-05-16T01:17:28.885Z,0.51
2023-05-16T01:18:29.051Z,0.51
2023-05-16T01:19:29.058Z,0.50
2023-05-16T01:20:29.090Z,0.51
2023-05-16T01:21:29.091Z,0.51
2023-05-16T01:22:29.154Z,0.50
2023-05-16T01:23:29.209Z,0.51
2023-05-16T01:24:29.282Z,0.51
2023-05-16T01:25:29.450Z,0.51
2023-05-16T01:26:29.428Z,0.52
2023-05-16T01:27:29.507Z,0.50
2023-05-16T01:28:29.568Z,0.50
2023-05-16T01:29:29.628Z,0.51
2023-05-16T01:30:29.685Z,0.51
2023-05-16T01:31:29.811Z,0.50
2023-05-16T01:32:29.861Z,0.52
2023-05-16T01:33:29.893Z,0.51
2023-05-16T01:34:30.033Z,0.51
2023-05-16T01:35:30.008Z,0.51
2023-05-16T01:36:30.071Z,0.51
2023-05-16T01:37:30.147Z,0.51
2023-05-16T01:38:30.208Z,0.51
2023-05-16T01:39:30.281Z,0.52
2023-05-16T01:40:30.362Z,0.52
2023-05-16T01:41:30.416Z,0.50
2023-05-16T01:42:30.488Z,0.51
2023-05-16T01:43:30.556Z,0.51
2023-05-16T01:44:30.618Z,0.50
2023-05-16T01:45:30.689Z,0.51
2023-05-16T01:46:30.784Z,0.51
2023-05-16T01:47:30.876Z,0.50
2023-05-16T01:48:30.924Z,0.51
2023-05-16T01:49:30.982Z,0.51
2023-05-16T01:50:31.032Z,0.51
2023-05-16T01:51:31.101Z,0.51
2023-05-16T01:52:31.162Z,0.51
2023-05-16T01:53:31.264Z,0.50
2023-05-16T01:54:31.326Z,0.52
2023-05-16T01:55:31.348Z,0.50
2023-05-16T01:56:31.418Z,0.51
2023-05-16T01:57:31.836Z,0.52
2023-05-16T01:58:31.837Z,0.50
2023-05-16T01:59:31.829Z,0.50
2023-05-16T02:00:31.879Z,0.50
2023-05-16T02:01:31.852Z,0.51
2023-05-16T02:02:31.855Z,0.51
2023-05-16T02:03:31.928Z,0.51
2023-05-16T02:04:31.970Z,0.51
2023-05-16T02:05:32.052Z,0.51
2023-05-16T02:06:32.104Z,0.51
2023-05-16T02:07:32.185Z,0.51
2023-05-16T02:08:32.240Z,0.51
2023-05-16T02:09:32.302Z,0.51
2023-05-16T02:10:32.386Z,0.51
2023-05-16T02:11:32.845Z,0.51
2023-05-16T02:12:32.852Z,0.51
2023-05-16T02:13:32.844Z,0.51
2023-05-16T02:14:32.836Z,0.51
2023-05-16T02:15:32.833Z,0.51
2023-05-16T02:16:32.855Z,0.52
2023-05-16T02:17:32.921Z,0.50
2023-05-16T02:18:32.929Z,0.51
2023-05-16T02:19:32.996Z,0.52
2023-05-16T02:20:33.071Z,0.52
2023-05-16T02:21:33.244Z,0.52
2023-05-16T02:22:33.180Z,0.52
2023-05-16T02:23:33.247Z,0.52
2023-05-16T02:24:33.326Z,0.51
2023-05-16T02:25:33.398Z,0.50
2023-05-16T02:26:33.462Z,0.51
2023-05-16T02:27:33.537Z,0.51
2023-05-16T02:28:33.604Z,0.51
2023-05-16T02:29:33.679Z,0.51
2023-05-16T02:30:33.788Z,0.52
2023-05-16T02:31:33.940Z,0.51
2023-05-16T02:32:34.006Z,0.51
2023-05-16T02:33:33.939Z,0.50
2023-05-16T02:34:34.014Z,0.52
2023-05-16T02:35:34.084Z,0.51
2023-05-16T02:36:34.151Z,0.51
2023-05-16T02:37:34.247Z,0.52
2023-05-16T02:38:34.291Z,0.51
2023-05-16T02:39:34.354Z,0.51
2023-05-16T02:40:34.421Z,0.51
2023-05-16T02:41:34.483Z,0.51
2023-05-16T02:42:34.569Z,0.51
2023-05-16T02:43:34.615Z,0.51
2023-05-16T02:44:34.699Z,0.51
2023-05-16T02:45:34.767Z,0.50
2023-05-16T02:46:35.012Z,0.51
2023-05-16T02:47:34.923Z,0.51
2023-05-16T02:48:34.961Z,0.51
2023-05-16T02:49:35.038Z,0.51
2023-05-16T02:50:35.108Z,0.51
2023-05-16T02:51:35.175Z,0.51
2023-05-16T02:52:35.244Z,0.51
2023-05-16T02:53:35.335Z,0.51
2023-05-16T02:54:35.377Z,0.51
2023-05-16T02:55:35.622Z,0.51
2023-05-16T02:56:35.510Z,0.51
2023-05-16T02:57:35.584Z,0.51
2023-05-16T02:58:35.635Z,0.51
2023-05-16T02:59:35.721Z,0.51
2023-05-16T03:00:35.819Z,0.51
2023-05-16T03:01:35.869Z,0.51
2023-05-16T03:02:35.956Z,0.51
2023-05-16T03:03:36.036Z,0.51
2023-05-16T03:04:36.073Z,0.50
2023-05-16T03:05:36.111Z,0.51
2023-05-16T03:06:36.191Z,0.50
2023-05-16T03:07:36.254Z,0.51
2023-05-16T03:08:36.321Z,0.51
2023-05-16T03:09:36.416Z,0.50
2023-05-16T03:10:36.467Z,0.51
2023-05-16T03:11:36.998Z,0.52
2023-05-16T03:12:36.586Z,0.51
2023-05-16T03:13:36.671Z,0.51
2023-05-16T03:14:36.734Z,0.51
2023-05-16T03:15:36.824Z,0.51
2023-05-16T03:16:37.000Z,0.50
2023-05-16T03:17:37.087Z,0.50
2023-05-16T03:18:37.094Z,0.50
2023-05-16T03:19:37.107Z,0.51
2023-05-16T03:20:37.185Z,0.51
2023-05-16T03:21:37.250Z,0.50
2023-05-16T03:22:37.348Z,0.52
2023-05-16T03:23:37.405Z,0.50
2023-05-16T03:24:37.499Z,0.51
2023-05-16T03:25:37.912Z,0.50
2023-05-16T03:26:37.885Z,0.51
2023-05-16T03:27:37.900Z,0.50
2023-05-16T03:28:37.883Z,0.51
2023-05-16T03:29:37.881Z,0.51
2023-05-16T03:30:37.912Z,0.51
2023-05-16T03:31:38.027Z,0.51
2023-05-16T03:32:38.091Z,0.52
2023-05-16T03:33:38.118Z,0.51
2023-05-16T03:34:38.185Z,0.52
2023-05-16T03:35:38.269Z,0.51
2023-05-16T03:36:38.338Z,0.51
2023-05-16T03:37:38.406Z,0.51
2023-05-16T03:38:38.479Z,0.51
2023-05-16T03:39:38.892Z,0.52
2023-05-16T03:40:38.898Z,0.51
2023-05-16T03:41:38.918Z,0.51
2023-05-16T03:42:38.886Z,0.51
2023-05-16T03:43:38.954Z,0.51
2023-05-16T03:44:38.913Z,0.51
2023-05-16T03:45:39.025Z,0.51
2023-05-16T03:46:39.070Z,0.51
2023-05-16T03:47:39.178Z,0.51
2023-05-16T03:48:39.224Z,0.52
2023-05-16T03:49:39.293Z,0.50
2023-05-16T03:50:40.882Z,0.51
2023-05-16T03:51:39.382Z,0.51
2023-05-16T03:52:39.413Z,0.52
2023-05-16T03:53:39.405Z,0.52
2023-05-16T03:54:39.413Z,0.51
2023-05-16T03:55:39.414Z,0.51
2023-05-16T03:56:39.427Z,0.51
2023-05-16T03:57:39.466Z,0.50
2023-05-16T03:58:39.432Z,0.51
2023-05-16T03:59:39.435Z,0.51
2023-05-16T04:00:39.450Z,0.51
2023-05-16T04:01:39.487Z,0.50
2023-05-16T04:02:39.565Z,0.51
2023-05-16T04:03:39.466Z,0.51
2023-05-16T04:04:39.469Z,0.51
2023-05-16T04:05:39.511Z,0.51
2023-05-16T04:06:39.478Z,0.51
2023-05-16T04:07:39.509Z,0.51
2023-05-16T04:08:39.489Z,0.51
2023-05-16T04:09:39.481Z,0.51
2023-05-16T04:10:39.483Z,0.51
2023-05-16T04:11:39.486Z,0.51
2023-05-16T04:12:39.515Z,0.51
2023-05-16T04:13:39.617Z,0.51
2023-05-16T04:14:39.578Z,0.51
2023-05-16T04:15:39.639Z,0.51
2023-05-16T04:16:39.741Z,0.50
2023-05-16T04:17:39.844Z,0.50
2023-05-16T04:18:39.960Z,0.51
2023-05-16T04:19:39.933Z,0.51
2023-05-16T04:20:40.002Z,0.51
2023-05-16T04:21:40.070Z,0.51
2023-05-16T04:22:40.163Z,0.50
2023-05-16T04:23:40.228Z,0.51
2023-05-16T04:24:40.309Z,0.50
2023-05-16T04:25:40.375Z,0.51
2023-05-16T04:26:40.454Z,0.51
2023-05-16T04:27:40.510Z,0.51
2023-05-16T04:28:40.585Z,0.52
2023-05-16T04:29:40.693Z,0.51
2023-05-16T04:30:40.739Z,0.51
2023-05-16T04:31:40.850Z,0.51
2023-05-16T04:32:40.900Z,0.52
2023-05-16T04:33:40.921Z,0.51
2023-05-16T04:34:40.976Z,0.51
2023-05-16T04:35:41.043Z,0.51
2023-05-16T04:36:41.120Z,0.50
2023-05-16T04:37:41.194Z,0.51
2023-05-16T04:38:41.275Z,0.51
2023-05-16T04:39:41.368Z,0.51
2023-05-16T04:40:41.425Z,0.51
2023-05-16T04:41:41.498Z,0.52
2023-05-16T04:42:41.586Z,0.51
2023-05-16T04:43:41.655Z,0.51
2023-05-16T04:44:41.791Z,0.51
2023-05-16T04:45:41.846Z,0.51
2023-05-16T04:46:42.014Z,0.51
2023-05-16T04:47:42.051Z,0.50
2023-05-16T04:48:42.060Z,0.51
2023-05-16T04:49:42.119Z,0.50
2023-05-16T04:50:42.200Z,0.51
2023-05-16T04:51:42.278Z,0.52
2023-05-16T04:52:42.347Z,0.50
2023-05-16T04:53:42.430Z,0.51
2023-05-16T04:54:42.520Z,0.51
2023-05-16T04:55:42.597Z,0.51
2023-05-16T04:56:42.665Z,0.51
2023-05-16T04:57:42.752Z,0.51
2023-05-16T04:58:43.029Z,0.50
2023-05-16T04:59:42.893Z,0.50
2023-05-16T05:00:42.966Z,0.51
2023-05-16T05:01:43.114Z,0.51
2023-05-16T05:02:43.151Z,0.51
2023-05-16T05:03:43.203Z,0.50
2023-05-16T05:04:43.310Z,0.51
2023-05-16T05:05:43.355Z,0.51
2023-05-16T05:06:43.425Z,0.50
2023-05-16T05:07:43.494Z,0.51
2023-05-16T05:08:43.556Z,0.51
2023-05-16T05:09:43.629Z,0.50
2023-05-16T05:10:43.753Z,0.51
2023-05-16T05:11:44.134Z,0.51
2023-05-16T05:12:44.123Z,0.52
2023-05-16T05:13:44.131Z,0.50
2023-05-16T05:14:44.115Z,0.51
2023-05-16T05:15:44.111Z,0.50
2023-05-16T05:16:44.134Z,0.51
2023-05-16T05:17:44.481Z,0.50
2023-05-16T05:18:44.405Z,0.51
2023-05-16T05:19:44.359Z,0.52
2023-05-16T05:20:44.597Z,0.53
2023-05-16T05:21:44.467Z,0.54
2023-05-16T05:22:44.565Z,0.54
2023-05-16T05:23:44.613Z,0.58
2023-05-16T05:24:44.658Z,0.61
2023-05-16T05:25:45.127Z,0.62
2023-05-16T05:26:45.128Z,0.64
2023-05-16T05:27:44.864Z,0.65
2023-05-16T05:28:53.807Z,0.66
2023-05-16T05:29:45.599Z,0.66
2023-05-16T05:30:45.114Z,0.66
2023-05-16T05:31:45.122Z,0.66
2023-05-16T05:32:45.113Z,0.67
2023-05-16T05:33:44.951Z,0.69
2023-05-16T05:34:44.924Z,0.69
2023-05-16T05:35:45.164Z,0.63
2023-05-16T05:36:46.104Z,0.55
2023-05-16T05:37:44.940Z,0.55
2023-05-16T05:38:44.944Z,0.58
2023-05-16T05:39:44.990Z,0.59
2023-05-16T05:40:45.090Z,0.59
2023-05-16T05:41:45.822Z,0.59
2023-05-16T05:42:47.043Z,0.58
2023-05-16T05:43:45.205Z,0.58
2023-05-16T05:44:45.226Z,0.55
2023-05-16T05:45:45.263Z,0.55
2023-05-16T05:46:45.604Z,0.54
2023-05-16T05:47:45.408Z,0.54
2023-05-16T05:48:45.252Z,0.53
2023-05-16T05:49:45.532Z,0.53
2023-05-16T05:50:45.616Z,0.53
2023-05-16T05:51:45.278Z,0.55
2023-05-16T05:52:45.308Z,0.53
2023-05-16T05:53:45.283Z,0.53
2023-05-16T05:54:45.296Z,0.53
2023-05-16T05:55:45.613Z,0.55
2023-05-16T05:58:45.347Z,0.55
2023-05-16T06:00:45.334Z,0.56
2023-05-16T06:01:45.410Z,0.56
2023-05-16T06:02:45.484Z,0.58
2023-05-16T06:03:45.743Z,0.65
2023-05-16T06:04:45.389Z,0.79
2023-05-16T06:05:49.300Z,1.02
2023-05-16T06:06:45.453Z,0.56
2023-05-16T06:07:49.033Z,0.61
2023-05-16T06:08:45.625Z,0.56
2023-05-16T06:09:45.430Z,0.60
2023-05-16T06:10:46.529Z,0.66
2023-05-16T06:11:46.042Z,0.77
2023-05-16T06:12:45.925Z,0.94
2023-05-16T06:13:45.942Z,0.95
2023-05-16T06:14:45.586Z,0.97
2023-05-16T06:15:45.752Z,0.94
2023-05-16T06:16:45.911Z,0.93
2023-05-16T06:17:45.662Z,0.93
2023-05-16T06:18:45.591Z,0.93
2023-05-16T06:19:46.242Z,0.92
2023-05-16T06:20:45.880Z,0.92
2023-05-16T06:21:45.750Z,0.92
2023-05-16T06:22:45.943Z,0.91
2023-05-16T06:23:46.124Z,0.90
2023-05-16T06:24:46.743Z,0.92
2023-05-16T06:25:46.125Z,0.91
2023-05-16T06:26:45.951Z,0.92
2023-05-16T06:27:45.960Z,0.93
2023-05-16T06:28:46.261Z,0.93
2023-05-16T06:29:46.473Z,0.94
2023-05-16T06:30:46.507Z,0.92
2023-05-16T06:31:46.953Z,0.96
2023-05-16T06:32:46.486Z,0.95
2023-05-16T06:33:46.188Z,0.96
2023-05-16T06:34:46.549Z,0.96
2023-05-16T06:35:46.500Z,0.96
2023-05-16T06:36:46.260Z,0.97
2023-05-16T06:37:46.616Z,0.98
2023-05-16T06:38:46.407Z,0.96
2023-05-16T06:39:46.362Z,0.98
2023-05-16T06:40:46.924Z,0.99
2023-05-16T06:41:46.696Z,1.01
2023-05-16T06:42:46.870Z,1.00
2023-05-16T06:43:46.495Z,1.01
2023-05-16T06:44:46.488Z,1.02
2023-05-16T06:45:50.246Z,1.00
2023-05-16T06:46:54.276Z,1.00
2023-05-16T06:47:46.919Z,1.01
2023-05-16T06:48:46.633Z,1.01
2023-05-16T06:49:46.482Z,1.05
2023-05-16T06:50:47.119Z,1.14
2023-05-16T06:51:46.513Z,1.25
2023-05-16T06:52:54.157Z,1.48
2023-05-16T06:54:46.687Z,1.02
2023-05-16T06:55:46.955Z,1.09
2023-05-16T06:56:46.858Z,1.20
2023-05-16T06:58:02.469Z,1.43
2023-05-16T06:58:46.830Z,1.02
2023-05-16T06:59:46.404Z,1.11
2023-05-16T07:00:46.955Z,1.26
2023-05-16T07:01:46.956Z,1.51
2023-05-16T07:02:46.865Z,2.04
2023-05-16T07:03:47.998Z,2.25
2023-05-16T07:04:47.175Z,2.31
2023-05-16T07:05:46.444Z,2.32
2023-05-16T07:06:46.351Z,2.32
2023-05-16T07:07:46.466Z,2.36
2023-05-16T07:08:46.767Z,2.44
2023-05-16T07:09:47.335Z,2.54
2023-05-16T07:10:49.752Z,2.55
2023-05-16T07:11:46.271Z,2.55
2023-05-16T07:12:46.319Z,2.55
2023-05-16T07:13:46.902Z,2.54
2023-05-16T07:14:46.642Z,2.53
2023-05-16T07:15:47.066Z,2.45
2023-05-16T07:16:46.669Z,2.41
2023-05-16T07:17:46.368Z,2.32
2023-05-16T07:18:47.404Z,2.25
2023-05-16T07:19:46.975Z,2.17
2023-05-16T07:20:46.284Z,2.17
2023-05-16T07:21:46.173Z,2.08
2023-05-16T07:22:46.324Z,2.14
2023-05-16T07:23:46.130Z,2.04
2023-05-16T07:24:46.516Z,1.98
2023-05-16T07:25:46.478Z,1.95
2023-05-16T07:26:46.349Z,1.97
2023-05-16T07:27:46.447Z,1.92
2023-05-16T07:28:46.527Z,1.85
2023-05-16T07:29:46.428Z,1.83
2023-05-16T07:30:46.439Z,1.75
2023-05-16T07:31:46.201Z,1.63
2023-05-16T07:32:49.336Z,1.61
2023-05-16T07:33:46.177Z,1.61
2023-05-16T07:34:46.408Z,1.58
2023-05-16T07:36:15.481Z,1.58
2023-05-16T07:36:47.092Z,1.61
2023-05-16T07:37:47.336Z,1.62
2023-05-16T07:38:49.644Z,1.63
2023-05-16T07:39:46.159Z,1.62
2023-05-16T07:40:46.652Z,1.64
2023-05-16T07:41:46.132Z,1.67
2023-05-16T07:42:45.980Z,1.75
2023-05-16T07:43:46.455Z,1.88
2023-05-16T07:44:49.166Z,1.85
2023-05-16T07:45:49.749Z,1.85
2023-05-16T07:46:46.205Z,1.86
2023-05-16T07:47:46.078Z,1.87
2023-05-16T07:48:46.124Z,1.83
2023-05-16T07:49:45.943Z,1.77
2023-05-16T07:50:46.190Z,1.77
2023-05-16T07:51:45.915Z,1.77
2023-05-16T07:52:46.046Z,1.72
2023-05-16T07:53:46.051Z,1.74
2023-05-16T07:54:46.044Z,1.76
2023-05-16T07:55:46.160Z,1.77
2023-05-16T07:56:46.224Z,1.82
2023-05-16T07:57:46.023Z,1.72
2023-05-16T07:58:46.067Z,1.68
2023-05-16T07:59:46.242Z,1.63
2023-05-16T08:00:46.342Z,1.61
2023-05-16T08:01:47.038Z,1.58
2023-05-16T08:02:46.415Z,1.51
2023-05-16T08:03:49.661Z,1.54
2023-05-16T08:04:46.954Z,1.55
2023-05-16T08:05:46.529Z,1.48
2023-05-16T08:06:47.651Z,1.21
2023-05-16T08:07:46.322Z,1.39
2023-05-16T08:08:46.365Z,1.42
2023-05-16T08:09:46.401Z,1.27
2023-05-16T08:10:46.660Z,1.33
2023-05-16T08:11:46.417Z,1.19
2023-05-16T08:12:49.685Z,1.14
2023-05-16T08:13:53.877Z,1.15
2023-05-16T08:15:46.487Z,1.15
2023-05-16T08:16:46.545Z,1.17
2023-05-16T08:17:46.730Z,1.19
2023-05-16T08:18:46.469Z,1.21
2023-05-16T08:19:46.389Z,1.23
2023-05-16T08:20:46.374Z,1.18
2023-05-16T08:21:46.405Z,1.21
2023-05-16T08:22:46.387Z,1.23
2023-05-16T08:23:46.666Z,1.24
2023-05-16T08:24:46.658Z,1.10
2023-05-16T08:25:46.412Z,1.00
2023-05-16T08:26:46.348Z,0.99
2023-05-16T08:27:46.347Z,1.03
2023-05-16T08:28:46.701Z,0.95
2023-05-16T08:29:46.356Z,0.83
2023-05-16T08:30:47.910Z,0.86
2023-05-16T08:31:46.344Z,0.87
2023-05-16T08:32:46.395Z,0.80
2023-05-16T08:33:47.054Z,0.55
2023-05-16T08:35:46.310Z,0.50
2023-05-16T08:36:53.706Z,0.51
2023-05-16T08:37:46.287Z,0.51
2023-05-16T08:38:46.284Z,0.53
2023-05-16T08:39:49.500Z,0.59
2023-05-16T08:40:46.353Z,0.51
2023-05-16T08:41:46.664Z,0.54
2023-05-16T08:42:46.276Z,0.61
2023-05-16T08:43:46.679Z,0.68
2023-05-16T08:44:46.281Z,0.86
2023-05-16T08:46:02.648Z,0.91
2023-05-16T08:46:46.304Z,0.91
2023-05-16T08:47:46.260Z,0.92
2023-05-16T08:48:47.056Z,0.93
2023-05-16T08:49:46.952Z,0.97
2023-05-16T08:50:46.171Z,1.02
2023-05-16T08:51:47.151Z,1.02
2023-05-16T08:52:46.134Z,1.11
2023-05-16T08:53:46.126Z,1.14
2023-05-16T08:54:50.308Z,1.18
2023-05-16T08:55:46.093Z,1.18
2023-05-16T08:56:46.703Z,1.21
2023-05-16T08:57:46.057Z,1.25
2023-05-16T08:58:46.030Z,1.29
2023-05-16T08:59:46.173Z,1.42
2023-05-16T09:00:46.076Z,1.51
2023-05-16T09:01:46.368Z,1.58
2023-05-16T09:02:46.111Z,1.56
2023-05-16T09:03:46.128Z,1.62
2023-05-16T09:04:46.007Z,1.74
2023-05-16T09:05:45.884Z,1.71
2023-05-16T09:06:46.179Z,1.80
2023-05-16T09:07:46.006Z,1.81
2023-05-16T09:08:46.052Z,1.86
2023-05-16T09:09:46.797Z,1.95
2023-05-16T09:10:46.191Z,2.00
2023-05-16T09:11:46.191Z,2.04
2023-05-16T09:12:46.723Z,2.09
2023-05-16T09:13:45.696Z,2.14
2023-05-16T09:14:45.676Z,2.23
2023-05-16T09:15:45.708Z,2.26
2023-05-16T09:16:45.924Z,2.33
2023-05-16T09:17:45.742Z,2.39
2023-05-16T09:18:46.152Z,2.39
2023-05-16T09:19:45.798Z,2.48
2023-05-16T09:20:45.523Z,2.57
2023-05-16T09:21:45.907Z,2.56
2023-05-16T09:22:45.448Z,2.61
2023-05-16T09:23:45.548Z,2.70
2023-05-16T09:24:45.829Z,2.75
2023-05-16T09:25:45.379Z,2.74
2023-05-16T09:26:45.821Z,2.94
2023-05-16T09:27:45.373Z,2.85
2023-05-16T09:28:46.335Z,2.92
2023-05-16T09:29:45.375Z,2.99
2023-05-16T09:30:45.510Z,3.03
2023-05-16T09:31:48.377Z,3.04
2023-05-16T09:32:45.532Z,3.05
2023-05-16T09:33:45.392Z,3.06
2023-05-16T09:34:45.305Z,3.08
2023-05-16T09:35:45.899Z,3.12
2023-05-16T09:36:45.701Z,3.21
2023-05-16T09:37:45.293Z,3.17
2023-05-16T09:38:45.229Z,3.24
2023-05-16T09:39:45.726Z,3.24
2023-05-16T09:40:45.544Z,3.28
2023-05-16T09:41:45.471Z,3.30
2023-05-16T09:42:45.364Z,3.36
2023-05-16T09:43:52.286Z,3.38
2023-05-16T09:44:52.288Z,3.39
2023-05-16T09:45:45.323Z,3.40
2023-05-16T09:46:45.321Z,3.39
2023-05-16T09:47:44.794Z,3.39
2023-05-16T09:48:44.959Z,3.29
2023-05-16T09:49:44.688Z,3.26
2023-05-16T09:50:44.705Z,2.95
2023-05-16T09:51:47.944Z,2.74
2023-05-16T09:52:44.635Z,2.42
2023-05-16T09:53:52.114Z,2.17
2023-05-16T09:54:45.191Z,2.59
2023-05-16T09:55:44.566Z,2.64
2023-05-16T09:56:44.608Z,2.49
2023-05-16T09:57:44.573Z,1.80
2023-05-16T09:58:44.505Z,1.46
2023-05-16T09:59:44.703Z,1.59
2023-05-16T10:00:44.492Z,1.34
2023-05-16T10:01:44.731Z,1.26
2023-05-16T10:03:16.271Z,1.21
2023-05-16T10:03:44.534Z,1.21
2023-05-16T10:04:45.338Z,1.13
2023-05-16T10:05:44.719Z,1.16
2023-05-16T10:06:44.431Z,1.13
2023-05-16T10:07:44.381Z,1.14
2023-05-16T10:08:51.764Z,1.04
2023-05-16T10:10:00.364Z,1.04
2023-05-16T10:10:44.549Z,1.04
2023-05-16T10:11:44.377Z,0.96
2023-05-16T10:12:59.981Z,0.88
2023-05-16T10:13:44.408Z,0.93
2023-05-16T10:14:44.742Z,0.91
2023-05-16T10:15:44.854Z,0.81
2023-05-16T10:16:45.484Z,0.87
2023-05-16T10:17:47.389Z,0.99
2023-05-16T10:18:44.229Z,1.04
2023-05-16T10:19:44.142Z,1.02
2023-05-16T10:20:47.453Z,1.05
2023-05-16T10:21:44.181Z,1.04
2023-05-16T10:22:44.125Z,1.06
2023-05-16T10:23:44.220Z,1.09
2023-05-16T10:24:44.128Z,1.13
2023-05-16T10:25:44.213Z,1.20
2023-05-16T10:26:44.139Z,1.21
2023-05-16T10:27:44.124Z,1.23
2023-05-16T10:28:51.526Z,1.23
2023-05-16T10:29:54.226Z,1.23
2023-05-16T10:30:44.288Z,1.24
2023-05-16T10:31:51.610Z,1.29
2023-05-16T10:32:43.729Z,1.25
2023-05-16T10:33:43.690Z,1.30
2023-05-16T10:34:43.952Z,1.37
2023-05-16T10:35:43.712Z,1.43
2023-05-16T10:36:43.718Z,1.55
2023-05-16T10:37:44.214Z,1.53
2023-05-16T10:38:43.552Z,1.57
2023-05-16T10:39:43.519Z,1.60
2023-05-16T10:40:43.509Z,1.60
2023-05-16T10:41:43.505Z,1.59
2023-05-16T10:42:43.468Z,1.59
2023-05-16T10:43:44.775Z,1.62
2023-05-16T10:44:54.475Z,1.63
2023-05-16T10:45:43.495Z,1.63
2023-05-16T10:46:43.717Z,1.65
2023-05-16T10:47:43.359Z,1.67
2023-05-16T10:48:43.320Z,1.68
2023-05-16T10:49:43.518Z,1.68
2023-05-16T10:50:43.737Z,1.68
2023-05-16T10:51:43.240Z,1.73
2023-05-16T10:52:43.244Z,1.72
2023-05-16T10:53:43.185Z,1.72
2023-05-16T10:54:43.152Z,1.75
2023-05-16T10:55:43.232Z,1.73
2023-05-16T10:56:43.251Z,1.72
2023-05-16T10:57:44.096Z,1.74
2023-05-16T10:58:43.142Z,1.75
2023-05-16T10:59:43.145Z,1.72
2023-05-16T11:00:43.217Z,1.76
2023-05-16T11:01:43.246Z,1.80
2023-05-16T11:02:43.260Z,1.75
2023-05-16T11:03:43.254Z,1.72
2023-05-16T11:04:43.159Z,1.74
2023-05-16T11:05:43.155Z,1.73
2023-05-16T11:06:43.211Z,1.73
2023-05-16T11:07:43.151Z,1.71
2023-05-16T11:08:43.457Z,1.67
2023-05-16T11:09:43.153Z,1.69
2023-05-16T11:10:43.151Z,1.71
2023-05-16T11:11:44.858Z,1.72
2023-05-16T11:12:46.349Z,1.72
2023-05-16T11:13:43.154Z,1.73
2023-05-16T11:14:43.173Z,1.72
2023-05-16T11:15:43.158Z,1.72
2023-05-16T11:16:43.410Z,1.72
2023-05-16T11:17:45.495Z,1.70
2023-05-16T11:18:43.260Z,1.73
2023-05-16T11:19:43.165Z,1.73
2023-05-16T11:20:44.150Z,1.73
2023-05-16T11:21:58.875Z,1.74
2023-05-16T11:22:43.145Z,1.73
2023-05-16T11:23:42.707Z,1.73
2023-05-16T11:24:42.878Z,1.73
2023-05-16T11:25:42.675Z,1.77
2023-05-16T11:26:42.735Z,1.69
2023-05-16T11:27:43.123Z,1.70
2023-05-16T11:28:42.616Z,1.67
2023-05-16T11:29:42.595Z,1.69
2023-05-16T11:30:42.576Z,1.64
2023-05-16T11:31:42.786Z,1.67
2023-05-16T11:32:42.838Z,1.72
2023-05-16T11:33:42.503Z,1.68
2023-05-16T11:34:42.502Z,1.63
2023-05-16T11:35:42.496Z,1.61
2023-05-16T11:36:42.449Z,1.64
2023-05-16T11:37:42.801Z,1.63
2023-05-16T11:38:42.420Z,1.73
2023-05-16T11:39:43.157Z,1.63
2023-05-16T11:40:42.438Z,1.59
2023-05-16T11:41:42.747Z,1.62
2023-05-16T11:42:42.401Z,1.60
2023-05-16T11:43:42.398Z,1.65
2023-05-16T11:44:42.765Z,1.57
2023-05-16T11:45:42.501Z,1.55
2023-05-16T11:46:43.650Z,1.63
2023-05-16T11:47:42.782Z,1.62
2023-05-16T11:48:42.689Z,1.61
2023-05-16T11:49:42.678Z,1.63
2023-05-16T11:50:42.732Z,1.60
2023-05-16T11:51:43.257Z,1.63
2023-05-16T11:52:44.265Z,1.55
2023-05-16T11:53:43.194Z,1.61
2023-05-16T11:54:43.173Z,1.60
2023-05-16T11:55:43.219Z,1.52
2023-05-16T11:56:43.296Z,1.61
2023-05-16T11:57:43.261Z,1.55
2023-05-16T11:58:43.211Z,1.57
2023-05-16T11:59:43.182Z,1.53
2023-05-16T12:00:43.186Z,1.56
2023-05-16T12:01:43.263Z,1.52
2023-05-16T12:02:43.311Z,1.46
2023-05-16T12:03:46.581Z,1.49
2023-05-16T12:04:43.522Z,1.50
2023-05-16T12:05:43.386Z,1.51
2023-05-16T12:06:43.654Z,1.48
2023-05-16T12:07:46.415Z,1.53
2023-05-16T12:08:43.252Z,1.50
2023-05-16T12:09:58.808Z,1.50
2023-05-16T12:10:43.190Z,1.50
2023-05-16T12:11:43.265Z,1.51
2023-05-16T12:12:43.272Z,1.53
2023-05-16T12:13:43.192Z,1.52
2023-05-16T12:14:43.210Z,1.50
2023-05-16T12:15:43.187Z,1.50
2023-05-16T12:16:43.260Z,1.51
2023-05-16T12:17:43.357Z,1.54
2023-05-16T12:18:43.705Z,1.49
2023-05-16T12:19:43.206Z,1.48
2023-05-16T12:20:43.202Z,1.46
2023-05-16T12:21:43.269Z,1.44
2023-05-16T12:22:43.928Z,1.55
2023-05-16T12:23:43.229Z,1.49
2023-05-16T12:24:43.199Z,1.43
2023-05-16T12:25:43.201Z,1.40
2023-05-16T12:26:43.284Z,1.41
2023-05-16T12:27:45.468Z,1.51
2023-05-16T12:28:43.437Z,1.47
2023-05-16T12:29:43.269Z,1.46
2023-05-16T12:30:43.265Z,1.47
2023-05-16T12:31:43.343Z,1.40
2023-05-16T12:32:43.509Z,1.41
2023-05-16T12:33:43.365Z,1.39
2023-05-16T12:34:43.279Z,1.42
2023-05-16T12:35:43.249Z,1.47
2023-05-16T12:36:43.264Z,1.38
2023-05-16T12:37:43.209Z,1.41
2023-05-16T12:38:43.223Z,1.46
2023-05-16T12:39:43.242Z,1.39
2023-05-16T12:40:43.233Z,1.39
2023-05-16T12:41:43.271Z,1.44
2023-05-16T12:42:43.213Z,1.41
2023-05-16T12:43:43.281Z,1.44
2023-05-16T12:44:43.272Z,1.36
2023-05-16T12:45:43.230Z,1.36
2023-05-16T12:46:43.377Z,1.36
2023-05-16T12:47:43.317Z,1.38
2023-05-16T12:48:43.773Z,1.37
2023-05-16T12:49:43.416Z,1.39
2023-05-16T12:50:43.460Z,1.33
2023-05-16T12:51:43.486Z,1.37
2023-05-16T12:52:43.534Z,1.36
2023-05-16T12:53:45.802Z,1.32
2023-05-16T12:54:43.571Z,1.33
2023-05-16T12:55:43.605Z,1.34
2023-05-16T12:56:43.515Z,1.33
2023-05-16T12:57:43.511Z,1.37
2023-05-16T12:58:43.818Z,1.37
2023-05-16T12:59:43.450Z,1.31
2023-05-16T13:00:43.467Z,1.37
2023-05-16T13:01:43.833Z,1.30
2023-05-16T13:02:44.837Z,1.35
2023-05-16T13:03:43.882Z,1.33
2023-05-16T13:04:43.419Z,1.34
2023-05-16T13:05:43.302Z,1.34
2023-05-16T13:06:57.747Z,1.34
2023-05-16T13:07:43.265Z,1.34
2023-05-16T13:08:43.286Z,1.34
2023-05-16T13:09:43.253Z,1.34
2023-05-16T13:10:43.215Z,1.36
2023-05-16T13:11:43.293Z,1.35
2023-05-16T13:12:43.306Z,1.31
2023-05-16T13:13:43.145Z,1.31
2023-05-16T13:14:43.935Z,1.32
2023-05-16T13:15:43.201Z,1.31
2023-05-16T13:16:43.276Z,1.32
2023-05-16T13:17:43.104Z,1.31
2023-05-16T13:18:43.119Z,1.32
2023-05-16T13:19:43.026Z,1.29
2023-05-16T13:20:43.032Z,1.32
2023-05-16T13:21:43.085Z,1.29
2023-05-16T13:22:43.283Z,1.32
2023-05-16T13:23:43.174Z,1.26
2023-05-16T13:24:43.213Z,1.23